Terminal Aerodrome Forecast
Issued by NWS

Home | Current Version | Previous Version | Text Only | Print | Product List | Glossary On
Versions: 1 2 3 4 5 6 7 8 9 10 11 12 13 14 15
000
FTUS42 KTAE 241720
TAFVLD
TAF
KVLD 241720Z 2418/2518 23008KT P6SM SCT030
     FM250000 00000KT P6SM SCT050
     FM251000 00000KT 3SM BR BKN007
     FM251400 22004KT P6SM SCT015=

USA.gov is the U.S. government's official web portal to all federal, state and local government web resources and services.